Time;durP1;ratioP1;P1;durP2;ratioP2;P2;SDS_P1;SDS_P2;PMS_P1;PMS_P2;Temp;Humidity;BMP_temperature;BMP_pressure;BME280_temperature;BME280_humidity;BME280_pressure;Samples;Min_cycle;Max_cycle;Signal;HPM_P1;HPM_P2
2021/03/14 00:00:41;;;;;;;14.68;3.47;;;;;;;12.76;53.98;99627.78;5033516;28;20346;-75
2021/03/14 00:03:45;;;;;;;15.20;2.83;;;;;;;12.71;54.08;99621.22;5048637;28;20056;-73
2021/03/14 00:06:50;;;;;;;15.20;3.40;;;;;;;12.69;54.15;99625.94;5034226;28;20052;-74
2021/03/14 00:09:54;;;;;;;16.33;3.50;;;;;;;12.62;54.34;99619.50;5049502;28;20056;-74
2021/03/14 00:13:00;;;;;;;14.80;2.95;;;;;;;12.52;54.17;99603.50;5055316;28;20061;-74
2021/03/14 00:16:06;;;;;;;13.63;3.92;;;;;;;12.50;54.17;99612.75;5055058;28;20044;-76
2021/03/14 00:19:10;;;;;;;12.88;3.72;;;;;;;12.54;54.01;99616.81;5050596;28;20060;-75
2021/03/14 00:22:15;;;;;;;15.13;2.95;;;;;;;12.53;53.87;99604.34;5057481;28;20124;-75
2021/03/14 00:25:19;;;;;;;13.55;3.15;;;;;;;12.49;54.33;99609.22;5057456;28;20063;-75
2021/03/14 00:28:24;;;;;;;17.60;3.92;;;;;;;12.46;53.80;99608.69;5049526;28;20052;-74
2021/03/14 00:31:28;;;;;;;20.15;3.40;;;;;;;12.51;53.78;99606.38;5043439;28;20056;-74
2021/03/14 00:34:32;;;;;;;14.32;2.95;;;;;;;12.64;52.88;99607.53;5039694;28;20072;-74
2021/03/14 00:37:37;;;;;;;16.13;3.30;;;;;;;12.71;53.03;99613.13;5048937;28;20051;-74
2021/03/14 00:40:41;;;;;;;16.40;3.15;;;;;;;12.69;53.09;99615.97;5056653;28;20385;-74
2021/03/14 00:43:45;;;;;;;16.63;3.33;;;;;;;12.70;53.30;99600.66;5037513;28;20048;-74
2021/03/14 00:46:50;;;;;;;17.55;3.53;;;;;;;12.76;53.44;99602.72;5032005;28;20052;-74
2021/03/14 00:49:54;;;;;;;16.85;3.47;;;;;;;12.74;53.86;99593.97;5058342;28;20055;-73
2021/03/14 00:52:58;;;;;;;13.80;3.10;;;;;;;12.78;53.47;99587.22;5084682;28;20055;-74
2021/03/14 00:56:05;;;;;;;17.75;3.30;;;;;;;12.71;53.87;99580.81;5065066;28;20067;-74
2021/03/14 00:59:10;;;;;;;14.98;3.50;;;;;;;12.69;54.05;99575.59;5064785;28;20044;-75
2021/03/14 01:02:15;;;;;;;17.30;3.22;;;;;;;12.64;53.73;99572.53;5081683;28;20047;-75
2021/03/14 01:05:20;;;;;;;15.65;3.75;;;;;;;12.64;54.23;99555.56;5079618;28;20048;-74
2021/03/14 01:08:24;;;;;;;11.38;3.25;;;;;;;12.67;54.10;99563.28;5097472;28;20067;-75
2021/03/14 01:11:29;;;;;;;14.43;3.20;;;;;;;12.60;54.26;99563.13;5084206;28;20051;-74
2021/03/14 01:15:09;;;;;;;15.35;3.03;;;;;;;12.57;53.67;99557.22;5035066;28;20125;-72
2021/03/14 01:18:21;;;;;;;13.82;2.90;;;;;;;12.64;53.58;99553.69;5034949;28;20580;-74
2021/03/14 01:21:26;;;;;;;14.55;3.35;;;;;;;12.69;53.61;99543.28;5034892;28;20141;-73
2021/03/14 01:24:30;;;;;;;16.60;3.13;;;;;;;12.73;53.48;99551.88;5021149;28;20141;-76
2021/03/14 01:27:35;;;;;;;22.25;3.80;;;;;;;12.67;53.84;99542.59;5034000;28;20045;-74
2021/03/14 01:30:40;;;;;;;15.20;3.40;;;;;;;12.67;54.07;99553.38;5003779;28;20056;-74
2021/03/14 01:33:44;;;;;;;13.07;2.85;;;;;;;12.72;53.42;99542.09;5021997;28;20444;-72
2021/03/14 01:36:49;;;;;;;22.95;3.40;;;;;;;12.73;53.76;99535.72;5016989;28;20384;-72
2021/03/14 01:39:53;;;;;;;15.30;3.17;;;;;;;12.81;53.12;99520.38;5034661;28;20073;-74
2021/03/14 01:42:57;;;;;;;12.98;2.90;;;;;;;12.81;53.22;99517.69;5028274;28;20052;-74
2021/03/14 01:46:06;;;;;;;11.40;3.08;;;;;;;12.93;53.04;99508.28;5034227;28;20041;-74
2021/03/14 01:49:10;;;;;;;15.60;3.35;;;;;;;12.99;52.72;99525.59;5035712;28;20056;-75
2021/03/14 01:52:15;;;;;;;15.80;3.40;;;;;;;12.95;52.58;99517.03;5056566;28;20388;-75
2021/03/14 01:55:21;;;;;;;14.90;2.63;;;;;;;12.94;52.45;99512.63;5063952;28;20056;-74
2021/03/14 01:58:26;;;;;;;13.38;3.10;;;;;;;12.82;52.58;99502.38;5072671;28;20052;-75
2021/03/14 02:01:31;;;;;;;13.73;3.22;;;;;;;12.87;52.16;99503.56;5055962;28;20048;-76
2021/03/14 02:04:35;;;;;;;11.32;2.55;;;;;;;12.81;52.63;99495.31;5060307;28;20055;-75
2021/03/14 02:07:42;;;;;;;12.75;2.63;;;;;;;12.82;52.37;99486.22;5069275;28;20051;-73
2021/03/14 02:10:50;;;;;;;12.15;2.60;;;;;;;12.75;52.60;99486.06;5075856;28;20052;-74
2021/03/14 02:13:59;;;;;;;11.77;2.72;;;;;;;12.72;53.09;99480.16;5073702;28;20071;-73
2021/03/14 02:17:07;;;;;;;13.13;2.80;;;;;;;12.79;52.71;99470.38;5062407;28;20060;-77
2021/03/14 02:20:18;;;;;;;12.65;3.17;;;;;;;12.82;52.84;99472.75;5074852;28;20127;-76
2021/03/14 02:23:57;;;;;;;14.27;3.03;;;;;;;12.78;52.98;99474.09;5067018;28;20503;-74
2021/03/14 02:27:05;;;;;;;15.75;2.55;;;;;;;12.79;52.36;99468.53;5023881;28;20068;-74
2021/03/14 02:30:11;;;;;;;14.05;2.88;;;;;;;12.82;52.10;99467.38;5022407;28;20056;-73
2021/03/14 02:33:20;;;;;;;10.27;2.63;;;;;;;12.77;52.33;99456.25;5002132;28;20057;-75
2021/03/14 02:36:25;;;;;;;10.00;3.13;;;;;;;12.81;51.94;99457.63;5022911;28;20531;-74
2021/03/14 02:39:30;;;;;;;12.60;2.90;;;;;;;12.71;52.51;99465.03;5002192;28;20057;-74
2021/03/14 02:42:37;;;;;;;12.13;2.78;;;;;;;12.65;52.63;99457.63;5017884;28;20559;-74
2021/03/14 02:45:42;;;;;;;9.65;2.70;;;;;;;12.64;52.83;99456.78;5033150;28;20048;-74
2021/03/14 02:48:47;;;;;;;10.43;2.70;;;;;;;12.58;53.17;99451.25;5021482;28;20052;-75
2021/03/14 02:51:51;;;;;;;12.85;2.75;;;;;;;12.55;53.79;99446.19;5020828;28;20064;-74
2021/03/14 02:54:58;;;;;;;12.13;2.55;;;;;;;12.57;53.56;99450.41;5002248;28;20053;-73
2021/03/14 02:58:04;;;;;;;10.75;2.72;;;;;;;12.57;54.02;99450.41;5013098;28;20096;-74
2021/03/14 03:01:09;;;;;;;12.30;3.13;;;;;;;12.55;54.55;99441.66;5032807;28;20048;-75
2021/03/14 03:04:17;;;;;;;13.85;2.95;;;;;;;12.53;54.98;99446.38;5070008;28;20079;-73
2021/03/14 03:07:22;;;;;;;16.23;3.13;;;;;;;12.51;54.99;99439.47;5065437;28;20047;-76
2021/03/14 03:10:34;;;;;;;12.75;2.65;;;;;;;12.52;55.27;99439.28;5073790;28;20047;-76
2021/03/14 03:13:38;;;;;;;14.88;3.30;;;;;;;12.47;56.53;99436.25;5059405;28;20048;-74
2021/03/14 03:16:47;;;;;;;13.50;3.15;;;;;;;12.47;56.52;99435.44;5055587;28;20068;-75
2021/03/14 03:19:54;;;;;;;15.40;3.45;;;;;;;12.45;56.92;99438.28;5054772;28;20052;-74
2021/03/14 03:22:59;;;;;;;16.25;3.38;;;;;;;12.40;56.79;99428.03;5053576;28;20056;-74
2021/03/14 03:26:04;;;;;;;12.05;3.08;;;;;;;12.33;57.12;99420.81;5053873;28;20048;-74
2021/03/14 03:29:09;;;;;;;16.33;2.70;;;;;;;12.32;57.21;99413.72;5072136;28;20056;-75
2021/03/14 03:32:14;;;;;;;16.70;2.88;;;;;;;12.26;57.46;99400.97;5074567;28;20067;-74
2021/03/14 03:35:20;;;;;;;12.68;2.90;;;;;;;12.30;57.35;99405.84;5074274;28;20482;-73
2021/03/14 03:38:24;;;;;;;14.57;3.03;;;;;;;12.19;57.85;99402.66;5068952;28;20052;-74
2021/03/14 03:41:30;;;;;;;15.00;2.80;;;;;;;12.18;57.45;99401.81;5064537;28;20048;-73
2021/03/14 03:44:36;;;;;;;15.25;3.20;;;;;;;12.14;57.29;99392.41;5074186;28;20051;-74
2021/03/14 03:47:43;;;;;;;12.27;2.80;;;;;;;12.07;58.13;99390.53;5069748;28;20412;-74
2021/03/14 03:50:55;;;;;;;13.93;3.08;;;;;;;12.05;56.60;99393.38;5071925;28;20063;-72
2021/03/14 03:54:00;;;;;;;13.32;3.53;;;;;;;12.21;55.11;99379.94;5074037;28;20055;-74
2021/03/14 03:57:08;;;;;;;12.50;3.53;;;;;;;12.37;54.17;99382.63;5082569;28;20044;-74
2021/03/14 04:00:16;;;;;;;12.15;2.30;;;;;;;12.48;53.45;99369.81;5093614;28;20048;-76
2021/03/14 04:03:22;;;;;;;12.55;2.60;;;;;;;12.48;53.78;99367.13;5081794;28;20055;-73
2021/03/14 04:06:26;;;;;;;9.40;2.25;;;;;;;12.51;53.15;99366.78;5090322;28;20379;-73
2021/03/14 04:09:31;;;;;;;10.40;2.72;;;;;;;12.51;53.25;99375.72;5094033;28;20043;-73
2021/03/14 04:12:41;;;;;;;10.27;2.40;;;;;;;12.45;53.51;99375.53;5081428;28;20506;-74
2021/03/14 04:15:45;;;;;;;14.55;2.53;;;;;;;12.43;52.90;99354.19;5075815;28;20502;-73
2021/03/14 04:18:51;;;;;;;13.63;2.75;;;;;;;12.56;52.55;99372.50;5085786;28;20399;-74
2021/03/14 04:21:58;;;;;;;11.02;2.55;;;;;;;12.47;52.67;99354.69;5073502;28;20052;-72
2021/03/14 04:25:03;;;;;;;10.82;2.17;;;;;;;12.56;52.53;99348.28;5073718;28;20048;-77
2021/03/14 04:28:08;;;;;;;13.48;2.60;;;;;;;12.61;52.78;99362.06;5050058;28;20064;-75
2021/03/14 04:31:13;;;;;;;13.32;2.58;;;;;;;12.88;51.82;99346.34;5086808;28;20055;-77
2021/03/14 04:34:19;;;;;;;13.38;2.65;;;;;;;12.85;52.06;99344.00;5073651;28;20067;-75
2021/03/14 04:37:24;;;;;;;11.57;2.80;;;;;;;12.79;52.40;99338.44;5073624;28;20055;-74
2021/03/14 04:40:28;;;;;;;11.07;3.42;;;;;;;12.85;52.08;99356.59;5086399;28;20055;-77
2021/03/14 04:43:33;;;;;;;8.38;2.15;;;;;;;12.86;51.41;99339.44;5073536;28;20068;-73
2021/03/14 04:46:38;;;;;;;12.20;2.60;;;;;;;12.84;51.71;99334.22;5073788;28;20047;-73
2021/03/14 04:49:42;;;;;;;16.17;2.45;;;;;;;12.90;50.89;99327.31;5079593;28;20048;-74
2021/03/14 04:52:50;;;;;;;16.45;3.17;;;;;;;12.92;50.54;99320.72;5078792;28;20055;-74
2021/03/14 04:55:56;;;;;;;13.65;2.97;;;;;;;12.91;50.72;99320.91;5073395;28;20052;-77
2021/03/14 04:59:02;;;;;;;12.95;2.35;;;;;;;12.86;50.45;99323.28;5073357;28;20051;-74
2021/03/14 05:02:06;;;;;;;13.15;2.30;;;;;;;12.82;50.49;99316.56;5075590;28;20051;-76
2021/03/14 05:05:13;;;;;;;10.02;2.55;;;;;;;12.82;50.14;99314.69;5075370;28;20498;-75
2021/03/14 05:08:21;;;;;;;9.95;2.22;;;;;;;12.82;50.08;99319.25;5076910;28;20051;-73
2021/03/14 05:11:25;;;;;;;7.65;2.00;;;;;;;12.81;50.27;99320.28;5064812;28;20068;-74
2021/03/14 05:14:30;;;;;;;7.80;2.53;;;;;;;12.87;49.67;99322.25;5064705;28;20059;-74
2021/03/14 05:17:34;;;;;;;11.10;1.98;;;;;;;12.89;49.76;99321.06;5085736;28;20529;-74
2021/03/14 05:20:40;;;;;;;10.82;2.38;;;;;;;12.95;49.83;99327.63;5096912;28;20052;-74
2021/03/14 05:23:45;;;;;;;11.82;2.58;;;;;;;12.89;49.63;99322.91;5096834;28;20490;-74
2021/03/14 05:26:50;;;;;;;12.60;2.25;;;;;;;12.92;49.98;99319.88;5094545;28;20387;-76
2021/03/14 05:29:54;;;;;;;8.80;1.85;;;;;;;12.92;49.94;99327.97;5070317;28;20047;-74
2021/03/14 05:32:58;;;;;;;8.90;2.10;;;;;;;12.98;50.16;99322.72;5064185;28;20048;-74
2021/03/14 05:36:03;;;;;;;11.32;2.10;;;;;;;12.92;50.27;99349.50;5072373;28;20047;-74
2021/03/14 05:39:07;;;;;;;13.90;2.45;;;;;;;12.98;50.23;99321.88;5093818;28;20055;-76
2021/03/14 05:42:12;;;;;;;11.63;2.20;;;;;;;12.99;50.29;99334.31;5088112;28;20506;-74
2021/03/14 05:45:17;;;;;;;10.45;1.98;;;;;;;12.94;50.60;99324.06;5076332;28;20071;-74
2021/03/14 05:48:21;;;;;;;9.88;2.30;;;;;;;12.99;50.59;99331.63;5065806;28;20071;-74
2021/03/14 05:51:31;;;;;;;11.65;2.75;;;;;;;13.01;50.20;99335.81;5036316;28;20048;-75
2021/03/14 05:54:36;;;;;;;11.02;2.25;;;;;;;13.05;50.48;99336.34;5035129;28;20056;-75
2021/03/14 05:57:45;;;;;;;11.15;2.28;;;;;;;13.12;50.17;99340.03;5036106;28;20052;-74
2021/03/14 06:00:50;;;;;;;9.43;2.55;;;;;;;13.17;50.23;99350.28;5030770;28;20059;-74
2021/03/14 06:03:56;;;;;;;9.10;1.90;;;;;;;13.24;49.89;99344.00;5049035;28;20060;-74
2021/03/14 06:07:00;;;;;;;10.88;2.17;;;;;;;13.30;49.35;99355.94;5055107;28;20056;-75
2021/03/14 06:10:05;;;;;;;9.40;2.83;;;;;;;13.44;49.47;99363.28;5035717;28;20147;-76
2021/03/14 06:13:10;;;;;;;9.48;1.85;;;;;;;13.52;48.86;99363.25;5048494;28;20063;-78
2021/03/14 06:16:15;;;;;;;9.35;2.42;;;;;;;13.55;49.19;99370.97;5055608;28;20052;-76
2021/03/14 06:19:20;;;;;;;10.95;2.13;;;;;;;13.61;50.01;99365.72;5035952;28;20056;-73
2021/03/14 06:22:26;;;;;;;19.05;6.90;;;;;;;13.44;51.40;99368.66;5034427;28;20045;-73
2021/03/14 06:25:30;;;;;;;17.15;7.90;;;;;;;13.19;52.91;99381.44;5047613;28;20511;-73
2021/03/14 06:28:37;;;;;;;22.77;10.02;;;;;;;12.84;54.41;99382.69;5035473;28;20052;-76
2021/03/14 06:31:44;;;;;;;24.58;9.52;;;;;;;12.77;54.56;99397.88;5035798;28;20036;-75
2021/03/14 06:34:49;;;;;;;20.13;8.35;;;;;;;13.02;54.58;99398.63;5034595;28;20117;-74
2021/03/14 06:38:14;;;;;;;15.63;8.25;;;;;;;13.30;53.62;99399.91;5037134;28;20044;-73
2021/03/14 06:41:20;;;;;;;21.98;7.75;;;;;;;13.53;53.40;99398.09;5047816;28;20048;-74
2021/03/14 06:44:29;;;;;;;24.60;8.43;;;;;;;13.50;53.45;99403.03;5039776;28;20048;-75
2021/03/14 06:47:57;;;;;;;19.10;8.75;;;;;;;13.48;54.51;99419.34;5051702;28;20060;-73
2021/03/14 06:51:01;;;;;;;21.13;11.05;;;;;;;13.28;55.07;99428.88;5073846;28;20047;-73
2021/03/14 06:54:14;;;;;;;24.00;14.63;;;;;;;12.96;55.46;99437.06;5093780;28;20053;-73
2021/03/14 06:57:20;;;;;;;28.75;14.85;;;;;;;12.99;55.54;99447.47;5086007;28;20051;-77
2021/03/14 07:00:24;;;;;;;28.55;15.95;;;;;;;13.21;55.21;99459.41;5095172;28;20051;-75
2021/03/14 07:03:29;;;;;;;28.05;17.00;;;;;;;13.83;53.24;99457.59;5062430;28;20395;-73
2021/03/14 07:06:34;;;;;;;28.25;17.77;;;;;;;13.93;53.14;99469.00;5072053;28;20490;-74
2021/03/14 07:09:38;;;;;;;32.13;19.63;;;;;;;14.09;51.86;99474.31;5075000;28;20060;-77
2021/03/14 07:12:44;;;;;;;34.53;20.30;;;;;;;14.32;51.05;99464.41;5094655;28;20055;-72
2021/03/14 07:15:49;;;;;;;37.15;22.40;;;;;;;14.02;52.46;99481.47;5094844;28;20055;-73
2021/03/14 07:18:53;;;;;;;36.78;22.83;;;;;;;13.48;53.73;99484.06;5071726;28;20411;-75
2021/03/14 07:22:09;;;;;;;36.95;23.92;;;;;;;13.01;55.68;99484.00;5073781;28;20073;-78
2021/03/14 07:25:25;;;;;;;37.95;23.90;;;;;;;12.94;56.63;99480.31;5074399;28;20055;-76
2021/03/14 07:28:29;;;;;;;40.08;27.35;;;;;;;12.84;56.58;99476.94;5085652;28;20048;-77
2021/03/14 07:31:35;;;;;;;37.78;24.77;;;;;;;12.54;57.51;99487.59;5086070;28;20399;-75
2021/03/14 07:34:39;;;;;;;34.63;23.83;;;;;;;12.09;58.26;99485.34;5089047;28;20052;-75
2021/03/14 07:37:44;;;;;;;35.22;23.30;;;;;;;11.95;59.15;99491.38;5067285;28;20044;-75
2021/03/14 07:40:48;;;;;;;37.00;22.48;;;;;;;11.91;59.35;99501.63;5074443;28;20044;-75
2021/03/14 07:43:53;;;;;;;44.72;21.30;;;;;;;11.99;58.97;99506.19;5081232;28;20052;-79
2021/03/14 07:47:00;;;;;;;35.22;19.05;;;;;;;12.12;59.34;99520.00;5081747;28;20063;-75
2021/03/14 07:50:13;;;;;;;33.08;20.35;;;;;;;12.15;58.86;99519.66;5085200;28;20067;-74
2021/03/14 07:53:18;;;;;;;35.97;20.65;;;;;;;12.27;59.22;99518.34;5079002;28;20047;-80
2021/03/14 07:56:24;;;;;;;37.65;20.88;;;;;;;12.31;59.52;99520.53;5089497;28;20395;-79
2021/03/14 07:59:32;;;;;;;39.42;19.38;;;;;;;12.11;59.90;99524.53;5083295;28;20059;-77
2021/03/14 08:02:37;;;;;;;36.45;18.05;;;;;;;11.77;60.91;99515.69;5081766;28;20044;-74
2021/03/14 08:05:41;;;;;;;33.38;17.45;;;;;;;11.59;61.76;99512.22;5071215;28;20043;-74
2021/03/14 08:08:46;;;;;;;40.13;20.38;;;;;;;11.46;61.74;99533.31;5071266;28;20071;-74
2021/03/14 08:12:13;;;;;;;64.07;41.70;;;;;;;11.44;61.76;99540.69;5071460;28;20403;-75
2021/03/14 08:15:28;;;;;;;31.70;14.90;;;;;;;11.48;61.14;99534.03;5071136;28;20071;-74
2021/03/14 08:18:40;;;;;;;28.27;11.65;;;;;;;11.52;61.75;99519.25;5071096;28;20039;-74
2021/03/14 08:21:45;;;;;;;32.67;12.68;;;;;;;11.34;62.52;99518.47;5073829;28;20043;-73
2021/03/14 08:24:50;;;;;;;28.98;12.60;;;;;;;11.16;62.67;99509.66;5061469;28;20071;-74
2021/03/14 08:27:57;;;;;;;26.08;11.57;;;;;;;11.04;64.45;99517.97;5061584;28;20402;-74
2021/03/14 08:31:04;;;;;;;19.75;10.80;;;;;;;11.00;64.97;99524.66;5073740;28;20060;-74
2021/03/14 08:34:17;;;;;;;19.90;8.88;;;;;;;10.96;66.28;99525.97;5062837;28;20056;-74
2021/03/14 08:37:25;;;;;;;22.57;9.03;;;;;;;10.98;66.59;99525.81;5065319;28;20047;-73
2021/03/14 08:40:33;;;;;;;26.40;7.47;;;;;;;11.10;66.30;99524.56;5065653;28;20506;-73
2021/03/14 08:43:42;;;;;;;14.35;6.30;;;;;;;11.26;64.63;99526.50;5053730;28;20052;-75
2021/03/14 08:46:49;;;;;;;16.98;6.20;;;;;;;11.47;64.08;99529.63;5077364;28;20051;-75
2021/03/14 08:49:55;;;;;;;15.52;6.28;;;;;;;11.62;63.22;99525.34;5056430;28;20531;-74
2021/03/14 08:53:02;;;;;;;14.32;5.55;;;;;;;11.71;62.82;99527.09;5056464;28;20052;-74
2021/03/14 08:56:21;;;;;;;16.20;5.53;;;;;;;11.78;61.75;99548.81;5056768;28;20047;-74
2021/03/14 08:59:28;;;;;;;14.70;5.80;;;;;;;11.84;60.37;99554.38;5055832;28;20052;-73
2021/03/14 09:02:35;;;;;;;16.38;5.78;;;;;;;11.92;59.77;99557.09;5044513;28;20051;-75
2021/03/14 09:06:23;;;;;;;13.82;4.95;;;;;;;12.04;58.47;99566.56;5056532;28;20391;-75
2021/03/14 09:09:28;;;;;;;12.35;5.30;;;;;;;12.14;56.60;99579.88;5056210;28;20107;-73
2021/03/14 09:12:59;;;;;;;10.55;3.80;;;;;;;12.16;53.53;99570.63;5055737;28;20406;-72
2021/03/14 09:16:44;;;;;;;9.00;3.55;;;;;;;12.27;51.33;99559.53;5055982;28;20048;-74
2021/03/14 09:19:53;;;;;;;6.20;2.35;;;;;;;12.39;48.94;99557.41;5056028;28;20052;-73
2021/03/14 09:23:05;;;;;;;6.95;2.50;;;;;;;12.62;48.00;99552.19;5055900;28;20055;-73
2021/03/14 09:26:14;;;;;;;6.28;2.60;;;;;;;12.91;46.10;99553.38;5055562;28;20059;-74
2021/03/14 09:29:40;;;;;;;6.80;2.88;;;;;;;13.27;44.53;99556.56;5055867;28;20051;-73
2021/03/14 09:32:51;;;;;;;4.30;1.80;;;;;;;13.95;42.14;99554.16;5055710;28;20052;-74
2021/03/14 09:35:57;;;;;;;11.25;2.63;;;;;;;14.46;40.21;99547.34;5055783;28;20056;-75
2021/03/14 09:39:11;;;;;;;7.35;1.70;;;;;;;15.03;39.11;99544.19;5055906;28;20085;-73
2021/03/14 09:42:45;;;;;;;5.30;1.52;;;;;;;16.00;36.90;99547.53;5055532;28;20048;-73
2021/03/14 09:46:03;;;;;;;2.95;1.45;;;;;;;16.71;35.24;99549.41;5054510;28;20056;-74
2021/03/14 09:49:16;;;;;;;6.63;2.05;;;;;;;17.21;34.24;99555.69;5060365;28;20055;-73
2021/03/14 09:52:32;;;;;;;4.18;1.80;;;;;;;16.89;33.98;99544.38;5052366;28;20076;-73
2021/03/14 09:55:39;;;;;;;13.88;1.50;;;;;;;16.82;32.14;99554.31;5052490;28;20118;-74
2021/03/14 09:58:44;;;;;;;17.08;1.95;;;;;;;16.29;31.09;99552.88;5063798;28;20400;-73
2021/03/14 10:01:52;;;;;;;11.77;1.30;;;;;;;15.74;29.14;99563.41;5075740;28;20043;-74
2021/03/14 10:04:57;;;;;;;13.20;1.20;;;;;;;15.32;29.41;99547.78;5075949;28;20052;-73
2021/03/14 10:08:01;;;;;;;15.43;2.25;;;;;;;15.27;29.92;99554.75;5063819;28;20043;-73
2021/03/14 10:11:15;;;;;;;12.43;1.00;;;;;;;15.48;30.02;99550.34;5063584;28;20055;-73
2021/03/14 10:14:27;;;;;;;30.63;19.00;;;;;;;15.61;29.52;99544.28;5051898;28;20047;-74
2021/03/14 10:17:33;;;;;;;12.18;4.38;;;;;;;15.69;29.25;99552.31;5075902;28;20068;-74
2021/03/14 10:20:38;;;;;;;4.47;1.20;;;;;;;15.82;27.82;99552.50;5051769;28;20056;-73
2021/03/14 10:24:13;;;;;;;6.32;0.98;;;;;;;15.87;26.21;99565.47;5052975;28;20055;-74
2021/03/14 10:27:22;;;;;;;6.50;0.90;;;;;;;16.06;24.96;99557.59;5074994;28;20047;-75
2021/03/14 10:30:49;;;;;;;3.40;0.70;;;;;;;16.37;23.79;99554.63;5054351;28;20055;-73
2021/03/14 10:34:01;;;;;;;8.73;0.80;;;;;;;16.25;23.29;99564.28;5063027;28;20044;-73
2021/03/14 10:37:34;;;;;;;7.47;0.95;;;;;;;16.47;23.39;99557.03;5051243;28;20047;-73
2021/03/14 10:40:41;;;;;;;7.93;1.00;;;;;;;16.82;24.02;99576.00;5062923;28;20059;-73
2021/03/14 10:43:59;;;;;;;8.95;1.13;;;;;;;16.77;23.86;99561.34;5062779;28;20043;-73
2021/03/14 10:47:15;;;;;;;8.77;1.08;;;;;;;16.18;23.12;99575.03;5062743;28;20383;-73
2021/03/14 10:50:21;;;;;;;4.28;1.00;;;;;;;15.92;23.63;99563.88;5042272;28;20064;-74
2021/03/14 10:53:37;;;;;;;7.35;1.20;;;;;;;16.00;24.06;99573.75;5054183;28;20051;-72
2021/03/14 10:57:12;;;;;;;16.15;1.77;;;;;;;16.04;24.28;99581.31;5055163;28;20052;-72
2021/03/14 11:00:20;;;;;;;6.40;1.25;;;;;;;15.96;24.56;99570.59;5054808;28;20052;-73
2021/03/14 11:03:48;;;;;;;7.20;1.60;;;;;;;15.99;25.95;99570.22;5042978;28;20052;-73
2021/03/14 11:07:01;;;;;;;7.18;1.23;;;;;;;15.89;24.63;99590.47;5032128;28;20052;-73
2021/03/14 11:10:12;;;;;;;6.85;1.00;;;;;;;15.67;23.76;99588.69;5053847;28;20052;-75
2021/03/14 11:13:20;;;;;;;7.85;0.80;;;;;;;15.73;24.40;99577.97;5053221;28;20056;-76
2021/03/14 11:16:37;;;;;;;7.03;1.10;;;;;;;15.73;25.04;99583.38;5053667;28;20124;-73
2021/03/14 11:19:50;;;;;;;5.35;1.27;;;;;;;15.57;26.38;99592.53;5042173;28;20072;-73
2021/03/14 11:23:01;;;;;;;9.95;1.50;;;;;;;15.63;26.93;99613.41;5053617;28;20052;-73
2021/03/14 11:25:52;;;;;;;5.28;1.35;;;;;;;15.85;27.66;99603.53;5053675;28;20049;-72
2021/03/14 11:28:59;;;;;;;6.75;0.93;;;;;;;16.09;25.79;99613.25;5053341;28;20044;-72
2021/03/14 11:32:15;;;;;;;4.25;1.10;;;;;;;16.10;24.65;99623.88;5053265;28;20048;-73
2021/03/14 11:35:30;;;;;;;2.95;1.05;;;;;;;15.97;23.41;99620.16;5053078;28;20051;-74
2021/03/14 11:38:50;;;;;;;10.80;1.02;;;;;;;15.74;23.21;99622.09;5044414;28;20068;-74
2021/03/14 11:42:11;;;;;;;4.57;0.90;;;;;;;15.83;23.59;99624.53;5052974;28;20052;-73
2021/03/14 11:45:41;;;;;;;4.22;1.00;;;;;;;16.08;24.44;99625.09;5053307;28;20519;-73
2021/03/14 11:48:46;;;;;;;2.78;1.00;;;;;;;16.31;24.70;99628.53;5054725;28;20048;-74
2021/03/14 11:51:54;;;;;;;4.38;0.70;;;;;;;16.27;23.92;99619.94;5061693;28;20052;-72
2021/03/14 11:54:59;;;;;;;3.88;0.60;;;;;;;16.31;22.07;99615.00;5050106;28;20052;-72
2021/03/14 11:58:04;;;;;;;5.35;0.73;;;;;;;16.46;22.74;99618.53;5061113;28;20534;-72
2021/03/14 12:01:09;;;;;;;10.77;0.80;;;;;;;16.47;21.67;99620.19;5061350;28;20056;-74
2021/03/14 12:04:14;;;;;;;9.20;2.55;;;;;;;16.48;20.57;99621.88;5061497;28;20051;-74
2021/03/14 12:07:24;;;;;;;13.80;5.88;;;;;;;16.31;20.74;99619.56;5061947;28;20503;-74
2021/03/14 12:10:28;;;;;;;3.10;0.90;;;;;;;16.13;21.13;99623.50;5061632;28;20043;-75
2021/03/14 12:13:34;;;;;;;4.85;0.60;;;;;;;16.10;19.90;99614.91;5061163;28;20055;-73
2021/03/14 12:16:39;;;;;;;1.52;0.50;;;;;;;15.91;19.98;99613.63;5061512;28;20495;-75
2021/03/14 12:19:43;;;;;;;2.65;0.60;;;;;;;15.91;20.89;99610.06;5074063;28;20047;-73
2021/03/14 12:22:51;;;;;;;5.30;0.70;;;;;;;15.86;19.66;99582.72;5061841;28;20051;-73
2021/03/14 12:25:56;;;;;;;5.13;0.75;;;;;;;15.87;20.64;99609.63;5061393;28;20059;-73
2021/03/14 12:29:09;;;;;;;6.80;0.60;;;;;;;15.83;19.10;99589.34;5061501;28;20047;-75
2021/03/14 12:32:24;;;;;;;2.78;0.50;;;;;;;15.88;19.91;99586.91;5073978;28;20056;-73
2021/03/14 12:35:30;;;;;;;6.22;1.13;;;;;;;15.87;19.81;99595.25;5061395;28;20063;-73
2021/03/14 12:38:41;;;;;;;5.80;0.73;;;;;;;15.85;20.03;99587.28;5060971;28;20119;-72
2021/03/14 12:41:46;;;;;;;12.00;0.80;;;;;;;15.80;20.26;99578.88;5061298;28;20043;-74
2021/03/14 12:44:50;;;;;;;7.07;0.70;;;;;;;15.61;19.15;99579.44;5049868;28;20051;-73
2021/03/14 12:47:55;;;;;;;3.65;0.68;;;;;;;15.54;19.68;99579.38;5073538;28;20055;-74
2021/03/14 12:51:00;;;;;;;4.25;0.60;;;;;;;15.60;19.40;99575.91;5051984;28;20056;-74
2021/03/14 12:54:08;;;;;;;2.72;0.45;;;;;;;15.57;19.44;99587.13;5052679;28;20052;-73
2021/03/14 12:57:12;;;;;;;3.88;0.57;;;;;;;15.59;19.58;99579.66;5052840;28;20047;-73
2021/03/14 13:00:16;;;;;;;5.43;0.60;;;;;;;15.63;19.78;99580.94;5052589;28;20048;-72
2021/03/14 13:03:20;;;;;;;4.00;0.60;;;;;;;15.66;19.35;99573.47;5053313;28;20056;-74
2021/03/14 13:06:27;;;;;;;2.42;0.47;;;;;;;15.65;19.37;99572.66;5053364;28;20052;-75
2021/03/14 13:09:32;;;;;;;5.55;0.60;;;;;;;15.69;20.21;99565.84;5053360;28;20056;-73
2021/03/14 13:12:40;;;;;;;2.40;0.63;;;;;;;15.78;21.53;99561.16;5053323;28;20048;-76
2021/03/14 13:15:44;;;;;;;8.15;0.68;;;;;;;15.85;18.71;99562.94;5053287;28;20056;-73
2021/03/14 13:18:48;;;;;;;3.95;0.52;;;;;;;16.01;18.04;99576.28;5053274;28;20052;-75
2021/03/14 13:21:53;;;;;;;6.03;0.80;;;;;;;16.10;22.08;99591.38;5055599;28;20056;-74
2021/03/14 13:24:58;;;;;;;10.38;1.80;;;;;;;15.45;27.33;99585.91;5055864;28;20071;-73
2021/03/14 13:28:02;;;;;;;10.18;0.90;;;;;;;14.65;27.54;99597.34;5056916;28;20060;-75
2021/03/14 13:31:07;;;;;;;7.85;0.88;;;;;;;14.20;29.01;99607.00;5056394;28;20056;-74
2021/03/14 13:34:11;;;;;;;11.07;1.48;;;;;;;14.08;28.63;99621.91;5055762;28;20056;-72
2021/03/14 13:37:16;;;;;;;4.25;0.90;;;;;;;13.94;27.77;99616.41;5056510;28;20044;-73
2021/03/14 13:40:21;;;;;;;7.25;0.90;;;;;;;13.95;26.65;99629.69;5056443;28;20063;-73
2021/03/14 13:43:25;;;;;;;7.65;0.77;;;;;;;14.06;26.25;99631.19;5056353;28;20052;-75
2021/03/14 13:46:29;;;;;;;8.35;0.88;;;;;;;14.28;25.70;99638.53;5056697;28;20063;-76
2021/03/14 13:49:34;;;;;;;3.40;0.90;;;;;;;14.34;24.92;99644.09;5063653;28;20056;-70
2021/03/14 13:52:39;;;;;;;6.75;0.77;;;;;;;14.21;24.19;99642.94;5076265;28;20059;-71
2021/03/14 13:55:43;;;;;;;9.75;4.13;;;;;;;14.14;24.08;99641.97;5076122;28;20056;-71
2021/03/14 13:58:48;;;;;;;10.00;4.22;;;;;;;14.10;23.38;99641.47;5076094;28;20380;-71
2021/03/14 14:01:53;;;;;;;6.15;0.80;;;;;;;14.04;20.44;99665.63;5064028;28;20503;-74
2021/03/14 14:04:57;;;;;;;5.13;0.50;;;;;;;14.15;20.32;99630.13;5076060;28;20055;-73
2021/03/14 14:08:02;;;;;;;1.50;0.55;;;;;;;14.39;20.57;99637.34;5075891;28;20044;-73
2021/03/14 14:11:06;;;;;;;1.85;0.73;;;;;;;14.62;21.18;99649.00;5075939;28;20051;-73
2021/03/14 14:14:12;;;;;;;3.40;1.20;;;;;;;14.75;21.07;99643.88;5075985;28;20055;-74
2021/03/14 14:17:17;;;;;;;1.88;0.47;;;;;;;14.93;21.87;99655.25;5063475;28;20388;-72
2021/03/14 14:20:22;;;;;;;1.77;0.80;;;;;;;15.14;21.78;99650.00;5063453;28;20043;-73
2021/03/14 14:23:26;;;;;;;7.65;0.90;;;;;;;15.33;22.46;99659.50;5075847;28;20051;-73
2021/03/14 14:26:30;;;;;;;1.23;0.50;;;;;;;15.48;23.10;99669.34;5063250;28;20055;-72
2021/03/14 14:29:35;;;;;;;2.25;0.88;;;;;;;15.56;23.25;99668.44;5063020;28;20490;-73
2021/03/14 14:32:40;;;;;;;6.55;1.30;;;;;;;15.60;23.65;99675.19;5075194;28;20387;-74
2021/03/14 14:35:44;;;;;;;4.03;1.10;;;;;;;15.54;22.92;99678.59;5075691;28;20384;-73